Time;durP1;ratioP1;P1;durP2;ratioP2;P2;SDS_P1;SDS_P2;PMS_P1;PMS_P2;Temp;Humidity;BMP_temperature;BMP_pressure;BME280_temperature;BME280_humidity;BME280_pressure;Samples;Min_cycle;Max_cycle;Signal;HPM_P1;HPM_P2
2022/08/30 00:01:04;;;;;;;7.8;5.8;;;;;;;;;;;;;
2022/08/30 00:01:45;;;;;;;7.6;5.9;;;;;;;;;;;;;
2022/08/30 00:04:12;;;;;;;9.2;6;;;;;;;;;;;;;
2022/08/30 00:06:37;;;;;;;7;5.9;;;;;;;;;;;;;
2022/08/30 00:09:02;;;;;;;7.3;6.1;;;;;;;;;;;;;
2022/08/30 00:11:27;;;;;;;7.1;6.1;;;;;;;;;;;;;
2022/08/30 00:13:53;;;;;;;7.5;5.8;;;;;;;;;;;;;
2022/08/30 00:16:18;;;;;;;6.4;5.7;;;;;;;;;;;;;
2022/08/30 00:18:45;;;;;;;7.1;6.1;;;;;;;;;;;;;
2022/08/30 00:21:10;;;;;;;6.4;5.8;;;;;;;;;;;;;
2022/08/30 00:23:35;;;;;;;7.2;6;;;;;;;;;;;;;
2022/08/30 00:26:01;;;;;;;6.2;5.6;;;;;;;;;;;;;
2022/08/30 00:28:27;;;;;;;6.2;5.6;;;;;;;;;;;;;
2022/08/30 00:30:52;;;;;;;7;6;;;;;;;;;;;;;
2022/08/30 00:33:18;;;;;;;7.3;6.1;;;;;;;;;;;;;
2022/08/30 00:35:43;;;;;;;7.1;5.8;;;;;;;;;;;;;
2022/08/30 00:38:09;;;;;;;6.9;6.2;;;;;;;;;;;;;
2022/08/30 00:40:34;;;;;;;8.6;6.2;;;;;;;;;;;;;
2022/08/30 00:43:00;;;;;;;7.5;6.4;;;;;;;;;;;;;
2022/08/30 00:45:25;;;;;;;8.1;5.7;;;;;;;;;;;;;
2022/08/30 00:47:51;;;;;;;9;5.8;;;;;;;;;;;;;
2022/08/30 00:50:16;;;;;;;6.5;5.6;;;;;;;;;;;;;
2022/08/30 00:52:42;;;;;;;6.8;6.1;;;;;;;;;;;;;
2022/08/30 00:55:07;;;;;;;6.7;5.6;;;;;;;;;;;;;
2022/08/30 00:57:34;;;;;;;6.7;6;;;;;;;;;;;;;
2022/08/30 00:59:59;;;;;;;9.3;6;;;;;;;;;;;;;
2022/08/30 01:02:24;;;;;;;7.1;6;;;;;;;;;;;;;
2022/08/30 01:04:50;;;;;;;7.5;5.7;;;;;;;;;;;;;
2022/08/30 01:07:16;;;;;;;8.3;6.4;;;;;;;;;;;;;
2022/08/30 01:09:41;;;;;;;8.1;6;;;;;;;;;;;;;
2022/08/30 01:12:07;;;;;;;7.5;6.4;;;;;;;;;;;;;
2022/08/30 01:14:32;;;;;;;6.4;5.8;;;;;;;;;;;;;
2022/08/30 01:16:59;;;;;;;7.2;6.1;;;;;;;;;;;;;
2022/08/30 01:19:24;;;;;;;6.2;5.6;;;;;;;;;;;;;
2022/08/30 01:21:49;;;;;;;7.6;5.3;;;;;;;;;;;;;
2022/08/30 01:24:14;;;;;;;6.6;5.6;;;;;;;;;;;;;
2022/08/30 01:26:40;;;;;;;6.9;5.8;;;;;;;;;;;;;
2022/08/30 01:29:05;;;;;;;8.5;5.9;;;;;;;;;;;;;
2022/08/30 01:31:35;;;;;;;6.9;5.4;;;;;;;;;;;;;
2022/08/30 01:33:56;;;;;;;6.8;5.4;;;;;;;;;;;;;
2022/08/30 01:36:22;;;;;;;6.5;5.8;;;;;;;;;;;;;
2022/08/30 01:38:47;;;;;;;8;5.9;;;;;;;;;;;;;
2022/08/30 01:41:14;;;;;;;6;5.4;;;;;;;;;;;;;
2022/08/30 01:43:39;;;;;;;6.4;5.8;;;;;;;;;;;;;
2022/08/30 01:46:05;;;;;;;6.8;6.1;;;;;;;;;;;;;
2022/08/30 01:48:30;;;;;;;6.9;5.5;;;;;;;;;;;;;
2022/08/30 01:50:57;;;;;;;6.7;6;;;;;;;;;;;;;
2022/08/30 01:53:22;;;;;;;8.3;6;;;;;;;;;;;;;
2022/08/30 01:55:47;;;;;;;6.9;6.1;;;;;;;;;;;;;
2022/08/30 01:58:12;;;;;;;7.4;5.9;;;;;;;;;;;;;
2022/08/30 02:00:39;;;;;;;7.1;5.9;;;;;;;;;;;;;
2022/08/30 02:03:04;;;;;;;6.9;6.2;;;;;;;;;;;;;
2022/08/30 02:05:31;;;;;;;8.2;6.8;;;;;;;;;;;;;
2022/08/30 02:07:56;;;;;;;9.8;6.2;;;;;;;;;;;;;
2022/08/30 02:10:23;;;;;;;9.4;6.4;;;;;;;;;;;;;
2022/08/30 02:12:48;;;;;;;10;6.7;;;;;;;;;;;;;
2022/08/30 02:15:13;;;;;;;9.6;6.8;;;;;;;;;;;;;
2022/08/30 02:17:38;;;;;;;9;6.7;;;;;;;;;;;;;
2022/08/30 02:20:05;;;;;;;7.7;6.1;;;;;;;;;;;;;
2022/08/30 02:22:30;;;;;;;10.5;7.3;;;;;;;;;;;;;
2022/08/30 02:24:56;;;;;;;8.2;6.5;;;;;;;;;;;;;
2022/08/30 02:27:21;;;;;;;9.4;6.5;;;;;;;;;;;;;
2022/08/30 02:29:48;;;;;;;11.4;6.9;;;;;;;;;;;;;
2022/08/30 02:32:13;;;;;;;10.2;6.7;;;;;;;;;;;;;
2022/08/30 02:34:38;;;;;;;9.9;6.8;;;;;;;;;;;;;
2022/08/30 02:37:04;;;;;;;8.3;6.7;;;;;;;;;;;;;
2022/08/30 02:39:29;;;;;;;9.7;6.2;;;;;;;;;;;;;
2022/08/30 02:41:54;;;;;;;6.2;5.4;;;;;;;;;;;;;
2022/08/30 02:44:21;;;;;;;7.2;5.7;;;;;;;;;;;;;
2022/08/30 02:46:46;;;;;;;6.3;5.5;;;;;;;;;;;;;
2022/08/30 02:49:11;;;;;;;7.5;6.1;;;;;;;;;;;;;
2022/08/30 02:51:38;;;;;;;6.7;5.5;;;;;;;;;;;;;
2022/08/30 02:54:04;;;;;;;6.9;5.4;;;;;;;;;;;;;
2022/08/30 02:56:29;;;;;;;6.8;5.6;;;;;;;;;;;;;
2022/08/30 02:58:55;;;;;;;6.7;5.6;;;;;;;;;;;;;
2022/08/30 03:01:20;;;;;;;8.1;5.7;;;;;;;;;;;;;
2022/08/30 03:03:46;;;;;;;9.4;5.9;;;;;;;;;;;;;
2022/08/30 03:06:11;;;;;;;8.4;5.9;;;;;;;;;;;;;
2022/08/30 03:08:38;;;;;;;6.7;5.9;;;;;;;;;;;;;
2022/08/30 03:11:03;;;;;;;6.2;5.5;;;;;;;;;;;;;
2022/08/30 03:13:28;;;;;;;6.9;6.2;;;;;;;;;;;;;
2022/08/30 03:15:53;;;;;;;7.1;5.9;;;;;;;;;;;;;
2022/08/30 03:18:21;;;;;;;6.7;5.7;;;;;;;;;;;;;
2022/08/30 03:20:47;;;;;;;6.7;5.6;;;;;;;;;;;;;
2022/08/30 03:23:13;;;;;;;6.8;6.1;;;;;;;;;;;;;
2022/08/30 03:25:39;;;;;;;7.1;6.2;;;;;;;;;;;;;
2022/08/30 03:28:04;;;;;;;7.2;6;;;;;;;;;;;;;
2022/08/30 03:30:30;;;;;;;7.9;6.3;;;;;;;;;;;;;
2022/08/30 03:32:55;;;;;;;7.3;6;;;;;;;;;;;;;
2022/08/30 03:35:20;;;;;;;7.1;6.3;;;;;;;;;;;;;
2022/08/30 03:37:49;;;;;;;7.7;6;;;;;;;;;;;;;
2022/08/30 03:40:15;;;;;;;10;6.1;;;;;;;;;;;;;
2022/08/30 03:42:42;;;;;;;9.4;6.4;;;;;;;;;;;;;
2022/08/30 03:45:07;;;;;;;7.9;5.8;;;;;;;;;;;;;
2022/08/30 03:47:33;;;;;;;6.9;5.8;;;;;;;;;;;;;
2022/08/30 03:49:58;;;;;;;7.1;5.6;;;;;;;;;;;;;
2022/08/30 03:52:23;;;;;;;7.7;5.8;;;;;;;;;;;;;
2022/08/30 03:54:48;;;;;;;8.3;6.5;;;;;;;;;;;;;
2022/08/30 03:57:15;;;;;;;9.7;6.3;;;;;;;;;;;;;
2022/08/30 03:59:41;;;;;;;9.6;6.4;;;;;;;;;;;;;
2022/08/30 04:02:44;;;;;;;9.4;6.4;;;;;;;15.44;93.31348;940.608;;;;
2022/08/30 04:05:18;;;;;;;7.8;6.3;;;;;;;15.46;94.06641;940.6304;;;;
2022/08/30 04:07:48;;;;;;;9.6;6.3;;;;;;;15.47;94.13867;940.6961;;;;
2022/08/30 04:10:13;;;;;;;7.9;6.1;;;;;;;15.49;93.71582;940.7394;;;;
2022/08/30 04:12:42;;;;;;;9.7;6.3;;;;;;;15.49;93.1748;940.7988;;;;
2022/08/30 04:15:09;;;;;;;8.8;6.2;;;;;;;15.51;92.82031;940.7745;;;;
2022/08/30 04:17:35;;;;;;;6.6;5.9;;;;;;;15.5;92.50488;940.8412;;;;
2022/08/30 04:20:00;;;;;;;9.2;6;;;;;;;15.49;92.39941;940.834;;;;
2022/08/30 04:22:33;;;;;;;6.7;5.4;;;;;;;15.43;92.66309;940.8994;;;;
2022/08/30 04:25:00;;;;;;;6.3;5.5;;;;;;;15.35;93.24609;940.9468;;;;
2022/08/30 04:27:28;;;;;;;8.5;6;;;;;;;15.34;93.22266;940.9556;;;;
2022/08/30 04:29:57;;;;;;;6.5;5.8;;;;;;;15.29;93.24609;940.915;;;;
2022/08/30 04:32:22;;;;;;;8.8;6.1;;;;;;;15.23;93.40527;940.9673;;;;
2022/08/30 04:34:52;;;;;;;6.3;5.5;;;;;;;15.21;93.43848;940.9551;;;;
2022/08/30 04:37:17;;;;;;;7;5.5;;;;;;;15.1;94.69434;940.9636;;;;
2022/08/30 04:39:47;;;;;;;7.8;5.8;;;;;;;15.1;95.57129;940.8929;;;;
2022/08/30 04:42:19;;;;;;;7.1;6;;;;;;;14.97;96.30273;940.979;;;;
2022/08/30 04:44:44;;;;;;;8;6.2;;;;;;;14.91;97.06348;940.9398;;;;
2022/08/30 04:47:14;;;;;;;7;5.7;;;;;;;14.95;97.47559;940.9718;;;;
2022/08/30 04:49:39;;;;;;;9.1;6;;;;;;;14.93;98.09375;941.0497;;;;
2022/08/30 04:52:09;;;;;;;9.7;6.5;;;;;;;14.91;98.00879;941.1042;;;;
2022/08/30 04:54:31;;;;;;;7.7;6;;;;;;;14.95;97.76367;941.1138;;;;
2022/08/30 04:56:59;;;;;;;7.5;5.8;;;;;;;15.04;96.99902;941.1635;;;;
2022/08/30 04:59:23;;;;;;;10.4;6.1;;;;;;;15.13;96.29199;941.1945;;;;
2022/08/30 05:01:50;;;;;;;7.7;5.7;;;;;;;15.16;95.85059;941.2081;;;;
2022/08/30 05:04:15;;;;;;;7.1;5.4;;;;;;;15.21;95.2041;941.1942;;;;
2022/08/30 05:06:45;;;;;;;7.4;5.9;;;;;;;15.34;94.39844;941.2397;;;;
2022/08/30 05:09:10;;;;;;;7;5.1;;;;;;;15.41;93.82324;941.2507;;;;
2022/08/30 05:11:42;;;;;;;7.2;5.7;;;;;;;15.35;94.05469;941.1987;;;;
2022/08/30 05:14:04;;;;;;;7.1;5;;;;;;;15.39;93.90234;941.2178;;;;
2022/08/30 05:16:35;;;;;;;6.7;5.2;;;;;;;15.54;93.34668;941.2495;;;;
2022/08/30 05:19:06;;;;;;;10;6.3;;;;;;;15.59;93.02246;941.2633;;;;
2022/08/30 05:21:35;;;;;;;7.2;5.5;;;;;;;15.63;92.53223;941.2754;;;;
2022/08/30 05:24:00;;;;;;;7;5.4;;;;;;;15.68;92.11621;941.325;;;;
2022/08/30 05:26:27;;;;;;;7.3;5.4;;;;;;;15.72;91.81152;941.2958;;;;
2022/08/30 05:28:52;;;;;;;5.9;5.2;;;;;;;15.76;91.49512;941.2843;;;;
2022/08/30 05:31:20;;;;;;;5.5;4.9;;;;;;;15.84;91.13086;941.3163;;;;
2022/08/30 05:33:45;;;;;;;5.9;5.2;;;;;;;15.91;90.82227;941.3046;;;;
2022/08/30 05:36:13;;;;;;;7.1;5.5;;;;;;;15.95;90.56543;941.2786;;;;
2022/08/30 05:38:38;;;;;;;6.9;5.3;;;;;;;16.1;91.99512;941.3117;;;;
2022/08/30 05:41:08;;;;;;;6.6;4.6;;;;;;;17.28;87.60547;941.2747;;;;
2022/08/30 05:43:39;;;;;;;5.4;4;;;;;;;18.75;78.17188;941.228;;;;
2022/08/30 05:46:05;;;;;;;5.2;3.7;;;;;;;19.58;73.76074;941.1905;;;;
2022/08/30 05:48:34;;;;;;;4.1;3.7;;;;;;;20.33;71.31836;941.1306;;;;
2022/08/30 05:51:05;;;;;;;6.5;3.9;;;;;;;21.23;67.75488;941.1233;;;;
2022/08/30 05:53:36;;;;;;;4.1;3.2;;;;;;;22.32;63.95605;941.1958;;;;
2022/08/30 05:56:06;;;;;;;4.2;3.3;;;;;;;22.56;62.52344;941.1804;;;;
2022/08/30 05:58:36;;;;;;;3.8;3.4;;;;;;;22.64;61.89063;941.2145;;;;
2022/08/30 06:01:05;;;;;;;4.7;3.5;;;;;;;22.38;62.07715;941.2003;;;;
2022/08/30 06:03:31;;;;;;;4.2;3.6;;;;;;;22.45;62.36816;941.166;;;;
2022/08/30 06:05:55;;;;;;;5.3;3.8;;;;;;;21.27;66.69434;941.1154;;;;
2022/08/30 06:08:25;;;;;;;5.6;4.6;;;;;;;20.83;68.46484;941.1567;;;;
2022/08/30 06:10:50;;;;;;;8.3;4.8;;;;;;;20.47;70.02051;941.1506;;;;
2022/08/30 06:13:21;;;;;;;6.9;4.5;;;;;;;20.27;72.61621;941.1329;;;;
2022/08/30 06:15:53;;;;;;;5.4;4;;;;;;;20.66;70.62402;941.0369;;;;
2022/08/30 06:18:20;;;;;;;6.5;4;;;;;;;20.99;68.48926;941.0255;;;;
2022/08/30 06:20:46;;;;;;;5.6;3.6;;;;;;;21.08;68.375;940.9829;;;;
2022/08/30 06:23:12;;;;;;;4.8;3.9;;;;;;;21.73;66.58984;940.9487;;;;
2022/08/30 06:25:47;;;;;;;5.3;4.4;;;;;;;22.76;63.38574;940.9005;;;;
2022/08/30 06:28:05;;;;;;;5;3.9;;;;;;;23.87;59.30762;940.9675;;;;
2022/08/30 06:30:31;;;;;;;3.6;3.3;;;;;;;24.37;56.5459;940.9408;;;;
2022/08/30 06:32:56;;;;;;;4.9;3.6;;;;;;;24.33;56.7998;940.9352;;;;
2022/08/30 06:35:28;;;;;;;4.2;3.5;;;;;;;24.45;56.4502;940.9462;;;;
2022/08/30 06:37:58;;;;;;;4.5;3.6;;;;;;;25.79;52.96777;940.8652;;;;
2022/08/30 06:40:29;;;;;;;4;3.3;;;;;;;26.6;50.56348;940.8801;;;;
2022/08/30 06:42:58;;;;;;;4.1;3.3;;;;;;;27.07;49.3125;940.7966;;;;
2022/08/30 06:45:23;;;;;;;3.3;3;;;;;;;27.89;47.53906;940.8036;;;;
2022/08/30 06:47:49;;;;;;;4.1;3.4;;;;;;;28.3;46.12012;940.7859;;;;
2022/08/30 06:50:15;;;;;;;3.9;3.5;;;;;;;27.82;47.4248;940.7742;;;;
2022/08/30 06:52:46;;;;;;;3.1;2.9;;;;;;;27.28;47.55762;940.8105;;;;
2022/08/30 06:55:11;;;;;;;3.8;3.5;;;;;;;27.02;49.22461;940.8027;;;;
2022/08/30 06:57:36;;;;;;;3.9;3;;;;;;;27.69;48.3125;940.8221;;;;
2022/08/30 07:00:04;;;;;;;3.3;3;;;;;;;28.44;47.32324;940.7957;;;;
2022/08/30 07:02:29;;;;;;;3.2;2.9;;;;;;;28.53;45.54883;940.7302;;;;
2022/08/30 07:05:01;;;;;;;3.2;2.8;;;;;;;28.27;46.2002;940.687;;;;
2022/08/30 07:07:23;;;;;;;3.5;3.2;;;;;;;26.71;48.38477;940.6992;;;;
2022/08/30 07:09:53;;;;;;;5.2;3.4;;;;;;;26.82;51.75;940.6797;;;;
2022/08/30 07:12:18;;;;;;;4.5;3.2;;;;;;;26.56;50.55957;940.6785;;;;
2022/08/30 07:14:48;;;;;;;3.2;2.9;;;;;;;27.9;46.89844;940.6731;;;;
2022/08/30 07:19:41;;;;;;;3.1;2.7;;;;;;;28.68;46.79004;940.676;;;;
2022/08/30 07:22:06;;;;;;;3.9;2.8;;;;;;;29.79;43.64941;940.5739;;;;
2022/08/30 07:24:36;;;;;;;3.3;3;;;;;;;29.58;43.02051;940.5115;;;;
2022/08/30 07:27:00;;;;;;;3;2.8;;;;;;;30.2;42.70996;940.5891;;;;
2022/08/30 07:29:27;;;;;;;4.7;2.7;;;;;;;30.42;42.49219;940.5649;;;;
2022/08/30 07:31:52;;;;;;;3.4;3;;;;;;;30.6;41.15918;940.5497;;;;
2022/08/30 07:34:20;;;;;;;2.9;2.7;;;;;;;30.5;40.21777;940.5344;;;;
2022/08/30 07:36:43;;;;;;;3.2;2.9;;;;;;;31.17;39.54688;940.5865;;;;
2022/08/30 07:39:13;;;;;;;4.1;3.2;;;;;;;31.77;38.49805;940.575;;;;
2022/08/30 07:41:44;;;;;;;3.1;2.8;;;;;;;32.23;37.91406;940.6071;;;;
2022/08/30 07:44:08;;;;;;;3.2;3;;;;;;;32.26;38.02344;940.5848;;;;
2022/08/30 07:46:35;;;;;;;3.5;3.2;;;;;;;33;36.74023;940.5574;;;;
2022/08/30 07:49:00;;;;;;;3.8;2.8;;;;;;;32.97;36.9541;940.5547;;;;
2022/08/30 07:51:27;;;;;;;3.1;2.6;;;;;;;34.49;33.76367;940.4995;;;;
2022/08/30 07:53:52;;;;;;;2.9;2.7;;;;;;;33.13;35.71777;940.5259;;;;
2022/08/30 07:56:19;;;;;;;3;2.7;;;;;;;31.74;38.55469;940.4608;;;;
2022/08/30 07:58:44;;;;;;;5.5;3;;;;;;;32.57;38.37305;940.5119;;;;
2022/08/30 08:01:12;;;;;;;25;5;;;;;;;33.82;35.18164;940.5352;;;;
2022/08/30 08:03:38;;;;;;;3;2.8;;;;;;;34.5;34.29492;940.5126;;;;
2022/08/30 08:06:02;;;;;;;4;2.6;;;;;;;35.23;33.44434;940.4975;;;;
2022/08/30 08:08:30;;;;;;;2.5;2.3;;;;;;;35.17;33.33105;940.5003;;;;
2022/08/30 08:10:55;;;;;;;2.9;2.7;;;;;;;35.6;33.15723;940.5106;;;;
2022/08/30 08:13:22;;;;;;;2.8;2.6;;;;;;;37.08;30.52637;940.5418;;;;
2022/08/30 08:15:48;;;;;;;2.7;2.5;;;;;;;37.37;30.43652;940.545;;;;
2022/08/30 08:18:16;;;;;;;2.7;2.5;;;;;;;36.87;30.81543;940.5117;;;;
2022/08/30 08:20:41;;;;;;;3.8;2.6;;;;;;;38.27;28.87988;940.4405;;;;
2022/08/30 08:23:07;;;;;;;2.8;2.6;;;;;;;37.84;29.24121;940.424;;;;
2022/08/30 08:25:34;;;;;;;2.7;2.5;;;;;;;37.31;30.84473;940.4089;;;;
2022/08/30 08:28:00;;;;;;;3.4;2.9;;;;;;;37.37;31.09082;940.4165;;;;
2022/08/30 08:30:25;;;;;;;3.2;2.8;;;;;;;37.99;30.37988;940.4291;;;;
2022/08/30 08:32:53;;;;;;;3;2.4;;;;;;;38.5;29.46582;940.3959;;;;
2022/08/30 08:35:18;;;;;;;3.2;2.9;;;;;;;37.46;31.40039;940.3734;;;;
2022/08/30 08:37:46;;;;;;;4.7;2.5;;;;;;;38.35;29.06738;940.3499;;;;
2022/08/30 08:40:11;;;;;;;3.3;2.8;;;;;;;36.37;31.36133;940.3465;;;;
2022/08/30 08:42:37;;;;;;;3.2;2.6;;;;;;;37.4;30.20801;940.3222;;;;
2022/08/30 08:45:10;;;;;;;2.9;2.7;;;;;;;35.54;33.81836;940.2889;;;;
2022/08/30 08:47:35;;;;;;;2.8;2.5;;;;;;;36.02;33.1875;940.272;;;;
2022/08/30 08:50:01;;;;;;;3.7;3;;;;;;;33.87;37.01563;940.2056;;;;
2022/08/30 08:54:57;;;;;;;3.8;2.8;;;;;;;32.21;39.09961;940.2812;;;;
2022/08/30 08:57:21;;;;;;;3.4;3.1;;;;;;;30.72;42.61523;940.1513;;;;
2022/08/30 08:59:53;;;;;;;3.4;2.9;;;;;;;32.23;41.09082;940.1874;;;;
2022/08/30 09:02:15;;;;;;;3.2;2.9;;;;;;;32.15;40.59277;940.1577;;;;
2022/08/30 09:04:48;;;;;;;2.8;2.6;;;;;;;31.93;39.93652;940.1848;;;;
2022/08/30 09:07:15;;;;;;;3.1;2.8;;;;;;;33.03;37.76367;940.1649;;;;
2022/08/30 09:09:39;;;;;;;2.8;2.6;;;;;;;33.31;36.86133;940.1716;;;;
2022/08/30 09:12:04;;;;;;;2.8;2.6;;;;;;;34.16;37.19531;940.1967;;;;
2022/08/30 09:14:32;;;;;;;2.9;2.7;;;;;;;34.26;36.08301;940.1992;;;;
2022/08/30 09:16:57;;;;;;;2.9;2.7;;;;;;;32.2;40.62012;940.1785;;;;
2022/08/30 09:19:22;;;;;;;4.3;3.9;;;;;;;31.38;41.79102;940.1375;;;;
2022/08/30 09:21:47;;;;;;;5.5;4.6;;;;;;;31.4;44.22363;940.14;;;;
2022/08/30 09:24:12;;;;;;;3.1;2.9;;;;;;;29.89;46.29492;940.0706;;;;
2022/08/30 09:26:39;;;;;;;3.1;2.8;;;;;;;29.97;46.99414;940.1042;;;;
2022/08/30 09:29:04;;;;;;;4;3.5;;;;;;;30.31;45.1084;940.0867;;;;
2022/08/30 09:31:29;;;;;;;3.4;3;;;;;;;30.24;45.08887;940.0633;;;;
2022/08/30 09:33:56;;;;;;;4.7;3.3;;;;;;;30.14;45.74707;940.058;;;;
2022/08/30 09:36:24;;;;;;;3.6;3.3;;;;;;;29.73;46.77832;940.0421;;;;
2022/08/30 09:38:46;;;;;;;3.3;3;;;;;;;29.15;47.95801;939.9717;;;;
2022/08/30 09:41:11;;;;;;;3.7;3.4;;;;;;;29.27;46.99316;939.9489;;;;
2022/08/30 09:43:41;;;;;;;3.7;3.4;;;;;;;29.28;47.66211;939.8823;;;;
2022/08/30 09:46:06;;;;;;;3.2;3;;;;;;;29.33;47.78711;939.8703;;;;
2022/08/30 09:48:32;;;;;;;4.1;3.7;;;;;;;29.58;46.56152;939.76;;;;
2022/08/30 09:50:57;;;;;;;3.5;3.1;;;;;;;29.95;45.58496;939.7925;;;;
2022/08/30 09:53:22;;;;;;;3.7;3.3;;;;;;;30.2;45.64648;939.8273;;;;
2022/08/30 09:55:47;;;;;;;4.9;3.7;;;;;;;29.77;46.71191;939.7224;;;;
2022/08/30 09:58:12;;;;;;;3.7;3.2;;;;;;;30.01;46.86816;939.7452;;;;
2022/08/30 10:00:37;;;;;;;3.7;3.4;;;;;;;29.9;46.67676;939.7402;;;;
2022/08/30 10:03:03;;;;;;;4;3.6;;;;;;;30.02;46.89258;939.7537;;;;
2022/08/30 10:05:27;;;;;;;4.3;3.2;;;;;;;29.95;46.40918;939.6716;;;;
2022/08/30 10:07:53;;;;;;;3.8;3.4;;;;;;;29.54;47.6416;939.7183;;;;
2022/08/30 10:10:18;;;;;;;3.9;3.6;;;;;;;29;51.03711;939.7411;;;;
2022/08/30 10:12:43;;;;;;;4.5;3.8;;;;;;;28.76;50.83203;939.7302;;;;
2022/08/30 10:15:09;;;;;;;4.9;4;;;;;;;28.3;53.51367;939.6857;;;;
2022/08/30 10:17:37;;;;;;;4.8;3.7;;;;;;;28.74;51.47266;939.5977;;;;
2022/08/30 10:19:59;;;;;;;5.7;4;;;;;;;28.61;51.48047;939.5461;;;;
2022/08/30 10:22:25;;;;;;;4;3.7;;;;;;;28.61;51.71875;939.633;;;;
2022/08/30 10:24:50;;;;;;;5.4;3.9;;;;;;;29;48.47754;939.5758;;;;
2022/08/30 10:27:15;;;;;;;3.7;3.4;;;;;;;29.44;48.91699;939.5027;;;;
2022/08/30 10:29:40;;;;;;;4;3.6;;;;;;;29.81;46.76367;939.4938;;;;
2022/08/30 10:32:07;;;;;;;5;3.5;;;;;;;29.99;45.60156;939.4305;;;;
2022/08/30 10:34:32;;;;;;;4;3.6;;;;;;;29.33;49.12109;939.4509;;;;
2022/08/30 10:36:58;;;;;;;3.8;3.5;;;;;;;29.74;47.11426;939.3925;;;;
2022/08/30 10:39:26;;;;;;;4.3;3.7;;;;;;;29.97;46.83984;939.4055;;;;
2022/08/30 10:41:59;;;;;;;4;3.6;;;;;;;29.7;49.39844;939.3708;;;;
2022/08/30 10:44:24;;;;;;;4.6;3.1;;;;;;;29.68;45.62988;939.3215;;;;
2022/08/30 10:46:49;;;;;;;4.5;3.1;;;;;;;29.94;47.23047;939.348;;;;
2022/08/30 10:49:15;;;;;;;3.9;3.5;;;;;;;31.02;44.35352;939.326;;;;
2022/08/30 10:51:40;;;;;;;3.9;3.5;;;;;;;30.94;45.90039;939.2852;;;;
2022/08/30 10:54:12;;;;;;;3.3;3;;;;;;;31.45;43.95215;939.2981;;;;
2022/08/30 10:56:37;;;;;;;3.7;3.2;;;;;;;31.68;42.61035;939.2664;;;;
2022/08/30 10:59:08;;;;;;;4.3;2.9;;;;;;;32.34;42.79199;939.2372;;;;
2022/08/30 11:01:39;;;;;;;4.5;3;;;;;;;32.57;41.87695;939.2352;;;;
2022/08/30 11:04:07;;;;;;;3.7;3.3;;;;;;;32.74;40.46582;939.2545;;;;
2022/08/30 11:06:33;;;;;;;3;2.8;;;;;;;33.44;38.4707;939.1619;;;;
2022/08/30 11:09:01;;;;;;;3.2;2.9;;;;;;;33.04;37.92188;939.1312;;;;
2022/08/30 11:11:26;;;;;;;3.9;3.5;;;;;;;32.65;40.6123;939.2905;;;;
2022/08/30 11:13:52;;;;;;;3.6;3.3;;;;;;;32.5;41.08008;939.2277;;;;
2022/08/30 11:16:24;;;;;;;3.6;3.2;;;;;;;31.92;42.46484;939.2263;;;;
2022/08/30 11:18:55;;;;;;;4.1;3.7;;;;;;;32.21;42.94824;939.1936;;;;
2022/08/30 11:21:23;;;;;;;3.4;3.1;;;;;;;33.35;37.9834;939.2299;;;;
2022/08/30 11:23:48;;;;;;;3.6;3.3;;;;;;;32.29;42.05566;939.1948;;;;
2022/08/30 11:26:13;;;;;;;3.3;3;;;;;;;32.34;40.40527;939.0915;;;;
2022/08/30 11:28:41;;;;;;;3.2;2.9;;;;;;;32.88;40.00879;939.1446;;;;
2022/08/30 11:31:12;;;;;;;3.9;3;;;;;;;31.9;41.49316;939.1718;;;;
2022/08/30 11:33:59;;;;;;;3.9;2.8;;;;;;;32.73;39.20313;939.1214;;;;
2022/08/30 11:36:12;;;;;;;3.4;3.1;;;;;;;32.39;39.85742;939.1016;;;;
2022/08/30 11:38:41;;;;;;;3.3;3;;;;;;;31.54;42.89551;939.0901;;;;
2022/08/30 11:41:11;;;;;;;4.2;2.9;;;;;;;31.57;41.39063;939.087;;;;
2022/08/30 11:43:41;;;;;;;3.4;3.1;;;;;;;31.32;42.19336;939.1359;;;;
2022/08/30 11:46:12;;;;;;;4.7;3.6;;;;;;;30.55;44.14063;939.0389;;;;
2022/08/30 11:48:37;;;;;;;3.3;2.9;;;;;;;30.4;43.875;938.9998;;;;
2022/08/30 11:51:02;;;;;;;3.2;3;;;;;;;29.41;46.7334;939.0467;;;;
2022/08/30 11:53:27;;;;;;;3.9;3;;;;;;;29.73;44.53711;939.0714;;;;
2022/08/30 11:55:52;;;;;;;3.9;3.1;;;;;;;30.15;42.9668;939.065;;;;
2022/08/30 11:58:18;;;;;;;3.7;3.4;;;;;;;29.47;45.05859;939.0255;;;;
2022/08/30 12:00:43;;;;;;;3.6;3.3;;;;;;;28.67;48.58398;939.0201;;;;
2022/08/30 12:03:08;;;;;;;3.3;3;;;;;;;29.04;46.16016;939.0164;;;;
2022/08/30 12:05:45;;;;;;;4.5;3.7;;;;;;;28.95;46.63867;938.9905;;;;
2022/08/30 12:08:19;;;;;;;3.7;3.4;;;;;;;27.63;50.95313;938.9847;;;;
2022/08/30 12:10:45;;;;;;;3.8;3.5;;;;;;;27.86;50.29102;938.9813;;;;
2022/08/30 12:13:13;;;;;;;3.3;3;;;;;;;27.76;50.48145;938.9153;;;;
2022/08/30 12:15:39;;;;;;;5;3.9;;;;;;;27.65;53.11621;938.9249;;;;
2022/08/30 12:20:33;;;;;;;4.6;4;;;;;;;28.25;49.09766;938.827;;;;
2022/08/30 12:23:04;;;;;;;4.2;3.7;;;;;;;27.63;53.29102;938.8082;;;;
2022/08/30 12:25:28;;;;;;;4;3.6;;;;;;;27.83;52.31738;938.7859;;;;
2022/08/30 12:27:55;;;;;;;5.2;4.1;;;;;;;28.02;49.95117;938.82;;;;
2022/08/30 12:30:25;;;;;;;4.2;3.5;;;;;;;28.09;48.27246;938.7745;;;;
2022/08/30 12:32:57;;;;;;;4.8;3.9;;;;;;;28.01;49.06055;938.8055;;;;
2022/08/30 12:35:40;;;;;;;3.6;3.3;;;;;;;28.18;48.53223;938.7355;;;;
2022/08/30 12:38:21;;;;;;;5.4;3.4;;;;;;;27.97;49.6377;938.7516;;;;
2022/08/30 12:40:36;;;;;;;4;3.4;;;;;;;28.11;49.7832;938.6696;;;;
2022/08/30 12:43:03;;;;;;;4.1;3.7;;;;;;;27.78;48.9873;938.7296;;;;
2022/08/30 12:45:35;;;;;;;5.2;3.7;;;;;;;27.74;48.29395;938.7286;;;;
2022/08/30 12:48:04;;;;;;;3.8;3.5;;;;;;;27.97;48.35449;938.6894;;;;
2022/08/30 12:50:34;;;;;;;3.8;3.5;;;;;;;28.13;48.09863;938.6795;;;;
2022/08/30 12:52:59;;;;;;;4.2;3.8;;;;;;;28.12;47.70605;938.6064;;;;
2022/08/30 12:55:24;;;;;;;4.5;3.7;;;;;;;28.06;47.10547;938.5625;;;;
2022/08/30 12:57:49;;;;;;;3.8;3.4;;;;;;;27.96;48.99512;938.6228;;;;
2022/08/30 13:00:15;;;;;;;4.5;3.5;;;;;;;27.28;51.33984;938.6599;;;;
2022/08/30 13:02:41;;;;;;;3.7;3.3;;;;;;;27.12;49.54395;938.5528;;;;
2022/08/30 13:05:14;;;;;;;4;3.6;;;;;;;27.21;49.53125;938.6125;;;;
2022/08/30 13:07:41;;;;;;;4.5;3.9;;;;;;;27.51;48.75586;938.6236;;;;
2022/08/30 13:10:05;;;;;;;4;3.6;;;;;;;27.52;48.24707;938.5887;;;;
2022/08/30 13:12:37;;;;;;;5;3.9;;;;;;;27.11;52.02051;938.5578;;;;
2022/08/30 13:15:00;;;;;;;4.5;3.5;;;;;;;27.19;50.71387;938.5485;;;;
2022/08/30 13:17:25;;;;;;;4.2;3.8;;;;;;;26.82;52.83887;938.5496;;;;
2022/08/30 13:19:53;;;;;;;4.6;3.7;;;;;;;27.17;50.60449;938.5244;;;;
2022/08/30 13:22:18;;;;;;;4;3.6;;;;;;;27.43;50.34863;938.5094;;;;
2022/08/30 13:24:45;;;;;;;4.3;3.9;;;;;;;27.65;49.0332;938.4673;;;;
2022/08/30 13:27:10;;;;;;;5.4;3.8;;;;;;;27.56;50.61328;938.4736;;;;
2022/08/30 13:29:39;;;;;;;6.4;3.8;;;;;;;27.63;49.10156;938.4708;;;;
2022/08/30 13:32:03;;;;;;;4.7;3.7;;;;;;;27.86;48.0459;938.3837;;;;
2022/08/30 13:34:31;;;;;;;3.9;3.5;;;;;;;28.27;47.33984;938.3962;;;;
2022/08/30 13:36:55;;;;;;;4.6;3.7;;;;;;;28.33;49.86816;938.4369;;;;
2022/08/30 13:39:21;;;;;;;4;3.4;;;;;;;28.44;45.63477;938.4269;;;;
2022/08/30 13:41:46;;;;;;;3.7;3.4;;;;;;;28.47;46.06543;938.4238;;;;
2022/08/30 13:44:15;;;;;;;3.4;3.1;;;;;;;28.45;45.79004;938.4652;;;;
2022/08/30 13:46:40;;;;;;;3.8;3.3;;;;;;;28.27;47.19824;938.4189;;;;
2022/08/30 13:49:05;;;;;;;4.2;3.2;;;;;;;28.21;45.80078;938.3959;;;;
2022/08/30 13:51:30;;;;;;;4.1;3.4;;;;;;;27.97;47.14355;938.4568;;;;
2022/08/30 13:53:59;;;;;;;4.2;3.3;;;;;;;27.94;46.03516;938.4114;;;;
2022/08/30 13:56:23;;;;;;;3.7;3.4;;;;;;;28.09;48.91406;938.338;;;;
2022/08/30 13:58:49;;;;;;;3.4;3.1;;;;;;;28.11;46.97949;938.3519;;;;
2022/08/30 14:01:14;;;;;;;4.2;3.5;;;;;;;27.59;48.12402;938.3819;;;;
2022/08/30 14:03:42;;;;;;;4.7;3.7;;;;;;;27.3;49.83691;938.3798;;;;
2022/08/30 14:06:07;;;;;;;3.7;3.4;;;;;;;27.61;47.74609;938.3315;;;;
2022/08/30 14:08:37;;;;;;;4.1;3.7;;;;;;;27.53;47.43066;938.368;;;;
2022/08/30 14:11:00;;;;;;;3.9;3.3;;;;;;;27.69;46.85254;938.3197;;;;
2022/08/30 14:13:27;;;;;;;4.4;3.4;;;;;;;27.62;44.60254;938.2914;;;;
2022/08/30 14:16:00;;;;;;;3.7;3.2;;;;;;;27.21;46.74414;938.2399;;;;
2022/08/30 14:18:25;;;;;;;4.2;3.6;;;;;;;26.8;47.60059;938.2189;;;;
2022/08/30 14:20:53;;;;;;;4.6;3.7;;;;;;;26.42;48.03516;938.2193;;;;
2022/08/30 14:23:19;;;;;;;3.7;3.3;;;;;;;26.43;47.47852;938.1912;;;;
2022/08/30 14:25:43;;;;;;;3.6;3.3;;;;;;;26.33;48.86426;938.2338;;;;
2022/08/30 14:28:15;;;;;;;3.7;3.4;;;;;;;26.39;49.12012;938.1696;;;;
2022/08/30 14:30:40;;;;;;;3.7;3.4;;;;;;;26.48;49.11816;938.1556;;;;
2022/08/30 14:33:05;;;;;;;3.6;3.3;;;;;;;26.3;48.47168;938.1316;;;;
2022/08/30 14:35:36;;;;;;;4.6;3.8;;;;;;;26.28;49.43945;938.103;;;;
2022/08/30 14:38:05;;;;;;;5;4;;;;;;;26.36;48.90332;938.0905;;;;
2022/08/30 14:40:31;;;;;;;5;3.9;;;;;;;26.47;48.67773;938.0352;;;;
2022/08/30 14:42:59;;;;;;;9.2;4.2;;;;;;;26.36;49.03418;938.0795;;;;
2022/08/30 14:45:25;;;;;;;3.6;3.3;;;;;;;26.41;48.86133;938.0558;;;;
2022/08/30 14:47:49;;;;;;;3.9;3.5;;;;;;;26.36;49.05664;938.0692;;;;
2022/08/30 14:50:18;;;;;;;4.1;3.6;;;;;;;26.26;48.86816;938.0242;;;;
2022/08/30 14:52:49;;;;;;;4.5;3.5;;;;;;;26.34;49.14941;937.9319;;;;
2022/08/30 14:55:14;;;;;;;4;3.6;;;;;;;26.49;49.78223;937.8666;;;;
2022/08/30 14:57:41;;;;;;;4;3.6;;;;;;;26.38;51.20215;937.9179;;;;
2022/08/30 15:00:06;;;;;;;5.4;3.5;;;;;;;26.42;49.76367;937.9312;;;;
2022/08/30 15:02:37;;;;;;;4.2;3.7;;;;;;;26.48;50.51465;937.8205;;;;
2022/08/30 15:05:06;;;;;;;4.2;3.8;;;;;;;26.59;49.08301;937.8514;;;;
2022/08/30 15:07:31;;;;;;;4.2;3.8;;;;;;;26.61;49.12012;937.7558;;;;
2022/08/30 15:10:02;;;;;;;5.1;3.8;;;;;;;26.47;50.95215;937.8284;;;;
2022/08/30 15:12:51;;;;;;;4.8;4;;;;;;;26.35;49.9209;937.8075;;;;
2022/08/30 15:15:20;;;;;;;3.9;3.5;;;;;;;26.38;50.33789;937.8019;;;;
2022/08/30 15:17:46;;;;;;;4.3;3.5;;;;;;;26.45;49.44629;937.7723;;;;
2022/08/30 15:20:11;;;;;;;4.3;3.8;;;;;;;26.56;48.94922;937.7059;;;;
2022/08/30 15:22:36;;;;;;;3.9;3.3;;;;;;;26.58;48.82129;937.6934;;;;
2022/08/30 15:25:01;;;;;;;4.8;3.3;;;;;;;26.69;49.25977;937.7367;;;;
2022/08/30 15:27:26;;;;;;;4.3;3.9;;;;;;;26.82;49.04785;937.726;;;;
2022/08/30 15:29:53;;;;;;;3.7;3.4;;;;;;;26.9;48.17969;937.774;;;;
2022/08/30 15:32:18;;;;;;;4.2;3.5;;;;;;;26.67;47.76465;937.6107;;;;
2022/08/30 15:34:46;;;;;;;3.8;3.5;;;;;;;26.66;48.13086;937.7531;;;;
2022/08/30 15:37:11;;;;;;;4.3;3.9;;;;;;;26.73;47.99707;937.6989;;;;
2022/08/30 15:39:41;;;;;;;3.9;3.5;;;;;;;26.66;47.76367;937.7125;;;;
2022/08/30 15:42:09;;;;;;;4.1;3.4;;;;;;;26.76;47.81055;937.728;;;;
2022/08/30 15:44:34;;;;;;;3.7;3.4;;;;;;;26.87;47.53711;937.765;;;;